« Back
NWS Peachtree City, Ga » Text Product » ATL Terminal Aerodrome Forecast


Printer-friendly Version
Current Version              Previous Versions:   1  2  3  4  5  6  7  8  9  

Terminal Aerodrome Forecast

399
FTUS42 KFFC 211536 AAB
TAFATL
TAF AMD
KATL 211536Z 2116/2218 35005KT P6SM SKC
     FM211800 01006KT P6SM FEW250
     FM220000 08006KT P6SM SCT250
     FM221400 10008KT P6SM SCT025=

USA.gov is the U.S. government's official web portal to all federal, state and local government web resources and services.